Time;durP1;ratioP1;P1;durP2;ratioP2;P2;SDS_P1;SDS_P2;PMS_P1;PMS_P2;Temp;Humidity;BMP_temperature;BMP_pressure;BME280_temperature;BME280_humidity;BME280_pressure;Samples;Min_cycle;Max_cycle;Signal;HPM_P1;HPM_P2
2022/10/19 00:01:18;;;;;;;21.95;12.75;;;;;;;18.82;70.09;98232.97;4884766;28;20281;-76
2022/10/19 00:03:47;;;;;;;25.23;13.52;;;;;;;18.77;70.06;98235.63;4885491;28;20505;-76
2022/10/19 00:06:24;;;;;;;23.25;11.80;;;;;;;18.78;69.93;98231.91;4871022;28;20180;-75
2022/10/19 00:08:57;;;;;;;21.58;12.88;;;;;;;18.71;70.02;98232.19;4887863;28;20293;-76
2022/10/19 00:11:23;;;;;;;22.00;13.23;;;;;;;18.74;69.96;98233.53;4886136;28;20277;-75
2022/10/19 00:13:49;;;;;;;21.48;13.35;;;;;;;18.76;69.85;98232.16;4870384;28;20275;-76
2022/10/19 00:16:16;;;;;;;30.92;15.07;;;;;;;18.72;69.81;98233.78;4886405;28;20304;-76
2022/10/19 00:18:44;;;;;;;24.35;14.35;;;;;;;18.72;69.82;98237.19;4870608;28;20671;-76
2022/10/19 00:21:13;;;;;;;26.83;14.60;;;;;;;18.68;69.99;98230.13;4886206;28;20192;-75
2022/10/19 00:23:38;;;;;;;25.50;15.27;;;;;;;18.68;70.01;98230.91;4886139;28;20625;-76
2022/10/19 00:26:04;;;;;;;24.88;15.05;;;;;;;18.66;70.07;98229.56;4885949;28;20190;-75
2022/10/19 00:28:29;;;;;;;28.33;16.15;;;;;;;18.65;69.96;98223.53;4870224;28;20163;-76
2022/10/19 00:30:55;;;;;;;25.67;15.23;;;;;;;18.62;70.04;98220.63;4886045;28;20172;-75
2022/10/19 00:33:21;;;;;;;30.60;16.85;;;;;;;18.53;70.31;98226.47;4870169;28;20269;-75
2022/10/19 00:35:48;;;;;;;27.58;16.50;;;;;;;18.47;70.47;98227.56;4861165;28;20266;-75
2022/10/19 00:38:18;;;;;;;29.35;14.88;;;;;;;18.44;70.25;98233.38;4888155;28;20311;-75
2022/10/19 00:40:44;;;;;;;27.30;15.25;;;;;;;18.51;70.40;98223.31;4869742;28;20171;-76
2022/10/19 00:43:23;;;;;;;27.90;15.00;;;;;;;18.57;70.32;98218.03;4880931;28;20209;-76
2022/10/19 00:45:49;;;;;;;25.10;15.45;;;;;;;18.41;70.30;98215.44;4880209;28;20238;-75
2022/10/19 00:48:18;;;;;;;31.20;15.60;;;;;;;18.47;70.60;98217.03;4885649;28;20917;-75
2022/10/19 00:50:44;;;;;;;28.67;16.48;;;;;;;18.44;70.28;98214.09;4885976;28;20568;-76
2022/10/19 00:53:09;;;;;;;31.33;15.77;;;;;;;18.41;70.46;98214.66;4886011;28;20105;-75
2022/10/19 00:55:36;;;;;;;29.80;14.98;;;;;;;18.43;70.62;98209.91;4870192;28;20229;-75
2022/10/19 00:58:02;;;;;;;30.38;17.05;;;;;;;18.40;70.50;98211.22;4883791;28;20286;-76
2022/10/19 01:00:27;;;;;;;30.58;16.02;;;;;;;18.50;70.34;98210.41;4868931;28;20470;-76
2022/10/19 01:02:53;;;;;;;33.25;16.88;;;;;;;18.50;70.32;98208.53;4866778;28;20259;-75
2022/10/19 01:05:18;;;;;;;30.95;16.15;;;;;;;18.50;70.15;98210.41;4853459;28;20240;-76
2022/10/19 01:07:44;;;;;;;29.38;15.70;;;;;;;18.51;70.19;98207.50;4869889;28;20214;-75
2022/10/19 01:10:09;;;;;;;34.15;18.40;;;;;;;18.46;70.24;98198.81;4869928;28;20258;-76
2022/10/19 01:12:48;;;;;;;30.90;17.00;;;;;;;18.57;70.14;98199.56;4869752;28;20309;-75
2022/10/19 01:15:16;;;;;;;32.22;16.88;;;;;;;18.50;70.69;98199.84;4887867;28;20206;-75
2022/10/19 01:17:46;;;;;;;31.38;17.98;;;;;;;18.47;70.40;98192.47;4869914;28;20209;-75
2022/10/19 01:20:40;;;;;;;34.25;17.35;;;;;;;18.72;69.81;98199.50;4885485;28;20689;-75
2022/10/19 01:23:14;;;;;;;34.05;16.75;;;;;;;18.78;69.66;98206.31;4887612;28;20319;-76
2022/10/19 01:25:53;;;;;;;34.60;16.52;;;;;;;18.86;69.10;98205.75;4885792;28;20365;-76
2022/10/19 01:28:39;;;;;;;30.20;17.58;;;;;;;18.83;69.29;98203.69;4885622;28;20175;-76
2022/10/19 01:31:18;;;;;;;30.85;16.48;;;;;;;18.84;69.19;98193.91;4869460;28;20367;-76
2022/10/19 01:33:53;;;;;;;30.90;16.33;;;;;;;18.76;69.23;98197.09;4869678;28;20126;-75
2022/10/19 01:36:34;;;;;;;28.55;15.27;;;;;;;18.81;69.21;98197.06;4869871;28;20699;-76
2022/10/19 01:39:18;;;;;;;30.30;16.77;;;;;;;18.86;69.05;98197.06;4873327;28;20313;-75
2022/10/19 01:41:52;;;;;;;27.73;15.40;;;;;;;18.78;69.50;98190.50;4888893;28;20648;-75
2022/10/19 01:44:25;;;;;;;30.25;16.45;;;;;;;18.80;68.79;98188.38;4872966;28;20305;-75
2022/10/19 01:46:57;;;;;;;26.80;15.23;;;;;;;18.87;68.91;98186.25;4853220;28;20298;-76
2022/10/19 01:49:34;;;;;;;25.50;14.88;;;;;;;18.89;69.05;98188.59;4885459;28;20193;-75
2022/10/19 01:52:03;;;;;;;27.98;15.52;;;;;;;18.81;69.14;98189.94;4888483;28;20241;-75
2022/10/19 01:54:33;;;;;;;27.42;16.05;;;;;;;18.87;69.10;98177.53;4873068;28;20167;-75
2022/10/19 01:57:01;;;;;;;32.78;17.75;;;;;;;18.63;69.57;98177.38;4872650;28;20242;-76
2022/10/19 01:59:26;;;;;;;27.70;15.95;;;;;;;18.53;69.96;98184.28;4872736;28;20645;-75
2022/10/19 02:01:53;;;;;;;28.13;16.20;;;;;;;18.65;69.55;98180.53;4872451;28;20291;-76
2022/10/19 02:04:20;;;;;;;30.27;17.33;;;;;;;18.69;69.19;98176.28;4872911;28;20741;-76
2022/10/19 02:06:46;;;;;;;32.35;17.52;;;;;;;18.63;69.65;98174.75;4888837;28;20218;-75
2022/10/19 02:09:16;;;;;;;30.33;17.17;;;;;;;18.67;69.52;98159.94;4888729;28;20217;-75
2022/10/19 02:11:44;;;;;;;31.52;16.58;;;;;;;18.73;69.41;98156.22;4888340;28;20255;-75
2022/10/19 02:14:12;;;;;;;29.35;15.60;;;;;;;18.64;69.35;98163.91;4872778;28;20305;-75
2022/10/19 02:16:54;;;;;;;32.13;16.67;;;;;;;18.59;69.96;98156.00;4904720;28;20200;-76
2022/10/19 02:19:20;;;;;;;36.88;19.38;;;;;;;18.52;69.65;98145.78;4888768;28;20109;-75
2022/10/19 02:21:46;;;;;;;32.35;17.00;;;;;;;18.49;70.19;98145.53;4887824;28;20382;-75
2022/10/19 02:24:11;;;;;;;34.40;17.27;;;;;;;18.47;69.83;98143.19;4890664;28;20233;-75
2022/10/19 02:26:37;;;;;;;36.75;17.63;;;;;;;18.44;70.16;98143.72;4891789;28;20285;-75
2022/10/19 02:29:02;;;;;;;36.13;17.50;;;;;;;18.38;70.26;98134.25;4888312;28;20769;-75
2022/10/19 02:31:27;;;;;;;36.90;17.40;;;;;;;18.42;70.47;98121.31;4872019;28;20122;-75
2022/10/19 02:33:53;;;;;;;36.72;17.33;;;;;;;18.39;70.44;98125.28;4887968;28;20188;-75
2022/10/19 02:36:18;;;;;;;39.33;18.85;;;;;;;18.41;70.24;98117.88;4888434;28;20242;-75
2022/10/19 02:38:44;;;;;;;37.85;17.67;;;;;;;18.52;69.98;98122.06;4888260;28;20205;-75
2022/10/19 02:41:34;;;;;;;37.85;16.25;;;;;;;18.50;70.28;98126.00;4887940;28;20276;-75
2022/10/19 02:44:03;;;;;;;37.67;16.25;;;;;;;18.57;69.96;98121.22;4889487;28;20266;-76
2022/10/19 02:46:39;;;;;;;33.20;17.85;;;;;;;18.63;69.85;98122.78;4866920;28;20174;-75
2022/10/19 02:49:05;;;;;;;37.13;17.55;;;;;;;18.57;69.88;98120.44;4871423;28;20254;-75
2022/10/19 02:51:39;;;;;;;35.00;16.65;;;;;;;18.68;69.73;98121.97;4887619;28;20187;-75
2022/10/19 02:54:09;;;;;;;31.92;16.08;;;;;;;18.54;69.80;98119.13;4888311;28;20189;-76
2022/10/19 02:56:34;;;;;;;32.72;15.45;;;;;;;18.50;70.30;98126.00;4872597;28;20222;-75
2022/10/19 02:59:01;;;;;;;42.55;18.17;;;;;;;18.34;70.53;98128.72;4887996;28;20214;-76
2022/10/19 03:01:26;;;;;;;40.05;18.02;;;;;;;18.15;71.38;98125.91;4887148;28;20218;-76
2022/10/19 03:03:52;;;;;;;37.30;15.68;;;;;;;18.27;70.89;98122.97;4887419;28;20688;-76
2022/10/19 03:06:18;;;;;;;36.20;17.58;;;;;;;18.26;71.11;98117.97;4887817;28;20203;-76
2022/10/19 03:08:43;;;;;;;44.88;18.00;;;;;;;18.33;70.79;98116.63;4871890;28;20671;-75
2022/10/19 03:11:09;;;;;;;42.97;17.98;;;;;;;18.35;70.88;98124.22;4855230;28;20258;-75
2022/10/19 03:13:34;;;;;;;36.90;17.98;;;;;;;18.28;70.76;98114.00;4871481;28;20210;-75
2022/10/19 03:16:08;;;;;;;49.53;18.02;;;;;;;18.35;70.86;98113.69;4870185;28;20297;-75
2022/10/19 03:18:33;;;;;;;54.72;17.17;;;;;;;18.04;71.05;98113.03;4889444;28;20180;-75
2022/10/19 03:21:07;;;;;;;48.72;17.38;;;;;;;18.17;71.24;98106.41;4855264;28;20309;-75
2022/10/19 03:23:33;;;;;;;42.00;18.05;;;;;;;18.20;70.83;98103.22;4871259;28;20729;-75
2022/10/19 03:25:58;;;;;;;41.97;16.33;;;;;;;18.09;71.05;98100.63;4887396;28;20277;-75
2022/10/19 03:28:24;;;;;;;46.60;17.02;;;;;;;18.18;70.94;98110.59;4889403;28;20261;-76
2022/10/19 03:30:49;;;;;;;77.95;19.35;;;;;;;17.86;71.73;98106.50;4888840;28;20186;-76
2022/10/19 03:33:14;;;;;;;64.85;18.33;;;;;;;17.89;71.83;98105.97;4871214;28;20373;-76
2022/10/19 03:35:40;;;;;;;97.80;21.58;;;;;;;17.91;71.53;98106.50;4887261;28;20277;-75
2022/10/19 03:38:05;;;;;;;49.22;17.10;;;;;;;17.95;71.72;98112.81;4887457;28;20330;-75
2022/10/19 03:40:30;;;;;;;60.95;17.83;;;;;;;17.68;72.49;98103.38;4871046;28;20528;-75
2022/10/19 03:42:56;;;;;;;108.88;20.88;;;;;;;17.81;72.05;98103.88;4886959;28;20194;-75
2022/10/19 03:45:21;;;;;;;81.28;18.88;;;;;;;17.73;72.19;98108.63;4866139;28;20237;-75
2022/10/19 03:47:50;;;;;;;151.88;24.25;;;;;;;17.77;71.94;98104.41;4888583;28;20358;-75
2022/10/19 03:50:16;;;;;;;144.73;22.80;;;;;;;17.71;72.33;98105.47;4854794;28;20203;-76
2022/10/19 03:52:42;;;;;;;120.30;20.95;;;;;;;17.70;72.20;98118.91;4870437;28;20576;-75
2022/10/19 03:55:09;;;;;;;35.05;15.52;;;;;;;17.91;71.66;98117.06;4886860;28;20250;-76
2022/10/19 03:57:35;;;;;;;138.82;23.08;;;;;;;17.80;71.57;98118.88;4871117;28;20282;-76
2022/10/19 04:00:00;;;;;;;148.23;23.30;;;;;;;17.71;71.92;98129.19;4887726;28;20677;-75
2022/10/19 04:02:25;;;;;;;142.50;23.60;;;;;;;17.59;72.04;98128.69;4887446;28;20155;-75
2022/10/19 04:04:51;;;;;;;65.97;16.67;;;;;;;17.39;72.57;98122.41;4870576;28;20277;-76
2022/10/19 04:07:16;;;;;;;174.50;25.20;;;;;;;17.47;72.31;98122.91;4888556;28;20285;-75
2022/10/19 04:09:42;;;;;;;83.38;20.30;;;;;;;17.44;72.64;98126.06;4870700;28;20295;-75
2022/10/19 04:12:07;;;;;;;124.22;21.33;;;;;;;17.46;72.08;98129.22;4886404;28;20274;-75
2022/10/19 04:14:32;;;;;;;156.73;22.38;;;;;;;17.48;71.96;98124.47;4854974;28;20168;-76
2022/10/19 04:16:58;;;;;;;117.45;19.98;;;;;;;17.40;71.88;98125.81;4870919;28;20286;-76
2022/10/19 04:19:23;;;;;;;324.92;33.33;;;;;;;17.42;71.74;98123.69;4886716;28;20306;-75
2022/10/19 04:21:49;;;;;;;218.95;26.80;;;;;;;17.30;72.23;98126.59;4869820;28;20234;-76
2022/10/19 04:24:16;;;;;;;131.85;20.23;;;;;;;17.38;72.25;98120.81;4886485;28;20210;-76
2022/10/19 04:26:44;;;;;;;332.80;33.88;;;;;;;17.09;72.93;98119.78;4870570;28;20584;-76
2022/10/19 04:29:10;;;;;;;111.25;20.05;;;;;;;17.26;72.61;98119.50;4870328;28;20220;-76
2022/10/19 04:31:36;;;;;;;136.02;20.40;;;;;;;17.22;72.53;98120.03;4870350;28;20201;-76
2022/10/19 04:34:02;;;;;;;130.32;23.05;;;;;;;17.10;72.99;98116.09;4886667;28;20364;-76
2022/10/19 04:36:27;;;;;;;56.22;16.92;;;;;;;17.21;72.55;98112.41;4886494;28;20309;-75
2022/10/19 04:38:52;;;;;;;56.95;16.88;;;;;;;17.36;72.08;98114.25;4886195;28;20274;-76
2022/10/19 04:41:20;;;;;;;72.72;15.88;;;;;;;17.30;72.37;98107.41;4870144;28;20202;-76
2022/10/19 04:43:46;;;;;;;70.32;15.98;;;;;;;17.29;72.43;98103.97;4884472;28;20627;-76
2022/10/19 04:46:14;;;;;;;112.55;19.58;;;;;;;17.47;71.80;98105.25;4850209;28;20350;-75
2022/10/19 04:48:40;;;;;;;44.83;13.82;;;;;;;17.58;71.47;98106.03;4869781;28;20288;-76
2022/10/19 04:51:06;;;;;;;117.70;18.42;;;;;;;17.50;71.50;98111.84;4869875;28;20332;-76
2022/10/19 04:53:32;;;;;;;53.53;14.85;;;;;;;17.42;71.85;98116.59;4899994;28;20198;-76
2022/10/19 04:55:58;;;;;;;75.28;16.73;;;;;;;17.38;71.84;98110.28;4867430;28;20352;-76
2022/10/19 04:58:23;;;;;;;39.88;14.52;;;;;;;17.58;71.58;98111.28;4883273;28;20270;-76
2022/10/19 05:00:49;;;;;;;79.03;17.63;;;;;;;17.54;71.48;98112.88;4884848;28;20336;-76
2022/10/19 05:03:15;;;;;;;120.78;18.75;;;;;;;17.36;71.99;98104.50;4865642;28;20105;-76
2022/10/19 05:05:40;;;;;;;140.38;18.70;;;;;;;17.40;71.56;98105.53;4853567;28;20326;-77
2022/10/19 05:08:05;;;;;;;83.10;14.40;;;;;;;17.37;71.77;98106.06;4869258;28;20589;-75
2022/10/19 05:10:31;;;;;;;30.73;12.07;;;;;;;17.60;71.15;98109.19;4887135;28;20202;-76
2022/10/19 05:12:56;;;;;;;162.00;20.55;;;;;;;17.36;71.91;98099.22;4871971;28;20298;-76
2022/10/19 05:15:21;;;;;;;71.57;14.30;;;;;;;17.28;72.29;98106.88;4872933;28;20232;-75
2022/10/19 05:17:47;;;;;;;141.63;18.65;;;;;;;17.27;72.00;98100.81;4889170;28;20836;-76
2022/10/19 05:20:12;;;;;;;65.05;13.75;;;;;;;17.48;71.67;98100.78;4872651;28;20210;-75
2022/10/19 05:22:38;;;;;;;42.20;12.80;;;;;;;17.59;71.48;98107.59;4890779;28;20119;-75
2022/10/19 05:25:05;;;;;;;102.43;16.35;;;;;;;17.56;71.32;98102.88;4888837;28;20143;-75
2022/10/19 05:27:30;;;;;;;228.85;23.30;;;;;;;17.44;71.46;98090.00;4888890;28;20640;-76
2022/10/19 05:29:56;;;;;;;133.80;16.77;;;;;;;17.37;71.82;98092.13;4888360;28;20210;-76
2022/10/19 05:32:21;;;;;;;83.15;15.13;;;;;;;17.43;71.50;98088.44;4888597;28;20323;-75
2022/10/19 05:34:46;;;;;;;29.13;11.40;;;;;;;17.39;72.04;98085.53;4856870;28;20280;-75
2022/10/19 05:37:12;;;;;;;40.70;13.15;;;;;;;17.56;71.49;98100.25;4872682;28;20172;-75
2022/10/19 05:39:37;;;;;;;58.05;13.20;;;;;;;17.53;71.27;98084.97;4857241;28;20381;-75
2022/10/19 05:42:03;;;;;;;87.82;15.20;;;;;;;17.60;71.02;98083.66;4888887;28;20144;-75
2022/10/19 05:44:28;;;;;;;60.25;13.57;;;;;;;17.57;71.37;98083.41;4886053;28;20175;-75
2022/10/19 05:46:54;;;;;;;56.90;12.68;;;;;;;17.68;70.70;98084.94;4870949;28;20723;-75
2022/10/19 05:49:20;;;;;;;43.25;11.48;;;;;;;17.65;71.23;98082.84;4889956;28;20340;-75
2022/10/19 05:51:46;;;;;;;50.05;12.45;;;;;;;17.67;71.11;98072.84;4880698;28;20226;-75
2022/10/19 05:54:12;;;;;;;31.77;10.77;;;;;;;17.72;71.05;98075.44;4873823;28;20041;-75
2022/10/19 05:56:39;;;;;;;55.03;14.20;;;;;;;17.72;71.04;98074.66;4889459;28;20206;-75
2022/10/19 05:59:05;;;;;;;44.80;14.13;;;;;;;17.71;71.11;98078.34;4889830;28;20284;-76
2022/10/19 06:01:31;;;;;;;48.00;13.93;;;;;;;17.71;70.86;98076.50;4872767;28;20718;-76
2022/10/19 06:03:58;;;;;;;39.45;13.48;;;;;;;17.81;70.55;98072.28;4888833;28;20397;-75
2022/10/19 06:06:24;;;;;;;41.95;13.10;;;;;;;17.72;70.92;98074.66;4889225;28;20286;-75
2022/10/19 06:08:50;;;;;;;72.78;17.10;;;;;;;17.57;71.33;98072.88;4889463;28;20137;-75
2022/10/19 06:11:18;;;;;;;85.13;14.30;;;;;;;17.50;71.58;98070.50;4888609;28;20202;-76
2022/10/19 06:13:45;;;;;;;49.22;13.82;;;;;;;17.57;71.62;98068.38;4873521;28;20195;-76
2022/10/19 06:16:12;;;;;;;117.20;16.88;;;;;;;17.46;71.65;98063.41;4889236;28;20213;-76
2022/10/19 06:18:37;;;;;;;32.65;10.68;;;;;;;17.53;71.65;98063.91;4872977;28;20206;-75
2022/10/19 06:21:09;;;;;;;43.13;12.00;;;;;;;17.63;71.35;98074.41;4888747;28;20179;-75
2022/10/19 06:23:35;;;;;;;52.67;11.65;;;;;;;17.63;71.44;98074.41;4888723;28;20209;-75
2022/10/19 06:26:09;;;;;;;67.38;12.85;;;;;;;17.74;70.91;98070.69;4890051;28;20030;-75
2022/10/19 06:28:35;;;;;;;80.95;12.57;;;;;;;17.45;72.29;98067.09;4890208;28;20210;-75
2022/10/19 06:31:00;;;;;;;95.68;14.35;;;;;;;17.57;71.70;98072.88;4873263;28;20363;-75
2022/10/19 06:33:27;;;;;;;41.30;13.20;;;;;;;17.73;71.50;98074.38;4889234;28;20327;-75
2022/10/19 06:35:52;;;;;;;41.13;10.25;;;;;;;17.60;71.33;98080.22;4888000;28;20408;-75
2022/10/19 06:38:18;;;;;;;26.77;10.07;;;;;;;17.76;71.37;98080.97;4856731;28;20363;-75
2022/10/19 06:40:43;;;;;;;30.25;10.10;;;;;;;17.76;71.28;98076.47;4857118;28;20628;-76
2022/10/19 06:43:09;;;;;;;19.83;9.38;;;;;;;17.77;71.24;98078.06;4856770;28;20373;-75
2022/10/19 06:45:36;;;;;;;42.78;11.45;;;;;;;17.83;71.63;98085.97;4886592;28;20731;-75
2022/10/19 06:48:02;;;;;;;25.05;9.60;;;;;;;17.82;71.16;98079.09;4887639;28;20340;-75
2022/10/19 06:50:27;;;;;;;46.08;10.05;;;;;;;17.86;70.92;98095.97;4887817;28;20146;-75
2022/10/19 06:52:53;;;;;;;27.45;9.65;;;;;;;17.92;71.03;98095.72;4888890;28;20287;-75
2022/10/19 06:55:18;;;;;;;18.38;8.70;;;;;;;17.97;70.87;98100.16;4889375;28;20166;-75
2022/10/19 06:57:44;;;;;;;48.38;10.73;;;;;;;17.95;70.77;98100.41;4871125;28;20210;-75
2022/10/19 07:00:10;;;;;;;22.95;8.73;;;;;;;17.95;70.93;98089.88;4886428;28;20171;-76
2022/10/19 07:02:35;;;;;;;20.83;8.38;;;;;;;18.01;70.78;98087.22;4888217;28;20668;-75
2022/10/19 07:05:00;;;;;;;34.85;9.65;;;;;;;17.97;71.04;98097.50;4872265;28;20311;-75
2022/10/19 07:07:26;;;;;;;35.85;9.88;;;;;;;17.95;71.16;98089.09;4889989;28;20620;-75
2022/10/19 07:09:52;;;;;;;56.30;11.75;;;;;;;17.93;71.31;98088.59;4871501;28;20857;-76
2022/10/19 07:12:18;;;;;;;36.08;10.00;;;;;;;17.88;71.72;98088.59;4886976;28;20570;-76
2022/10/19 07:14:43;;;;;;;30.40;9.95;;;;;;;17.88;71.43;98091.25;4888423;28;20291;-76
2022/10/19 07:17:10;;;;;;;49.78;10.25;;;;;;;17.78;71.79;98086.75;4888521;28;20187;-76
2022/10/19 07:19:35;;;;;;;26.08;8.80;;;;;;;17.76;71.70;98087.00;4870813;28;20852;-76
2022/10/19 07:22:01;;;;;;;41.33;9.82;;;;;;;17.79;71.51;98089.13;4890094;28;20200;-76
2022/10/19 07:24:26;;;;;;;58.92;10.57;;;;;;;17.95;71.03;98091.72;4871528;28;20216;-76
2022/10/19 07:26:51;;;;;;;85.55;11.57;;;;;;;17.84;71.46;98095.41;4887856;28;20645;-75
2022/10/19 07:29:17;;;;;;;89.57;14.38;;;;;;;17.83;71.25;98093.84;4855702;28;20340;-76
2022/10/19 07:31:42;;;;;;;56.58;11.50;;;;;;;17.94;71.18;98093.59;4887987;28;20175;-75
2022/10/19 07:34:10;;;;;;;33.20;10.15;;;;;;;18.05;71.15;98096.97;4887752;28;20621;-76
2022/10/19 07:36:36;;;;;;;77.90;13.18;;;;;;;17.94;71.25;98093.59;4887569;28;20205;-75
2022/10/19 07:39:04;;;;;;;29.30;8.93;;;;;;;18.05;71.10;98088.28;4871945;28;20218;-75
2022/10/19 07:41:29;;;;;;;41.20;10.90;;;;;;;17.95;71.13;98099.63;4871848;28;20250;-75
2022/10/19 07:43:56;;;;;;;35.88;10.77;;;;;;;18.02;71.16;98094.88;4855682;28;20294;-75
2022/10/19 07:46:24;;;;;;;35.35;7.95;;;;;;;17.91;71.63;98106.50;4852200;28;20205;-76
2022/10/19 07:48:49;;;;;;;95.93;14.30;;;;;;;17.75;71.44;98096.00;4887806;28;20226;-76
2022/10/19 07:51:16;;;;;;;63.65;11.07;;;;;;;17.77;71.70;98101.00;4887597;28;20292;-76
2022/10/19 07:53:41;;;;;;;35.72;9.00;;;;;;;17.64;72.26;98097.06;4872872;28;20050;-76
2022/10/19 07:56:09;;;;;;;113.90;14.30;;;;;;;17.76;71.81;98099.41;4888225;28;20680;-75
2022/10/19 07:58:35;;;;;;;27.30;9.07;;;;;;;17.99;71.03;98110.44;4888073;28;20293;-76
2022/10/19 08:01:12;;;;;;;58.63;10.90;;;;;;;17.99;71.12;98100.66;4876362;28;20286;-75
2022/10/19 08:03:37;;;;;;;32.58;9.13;;;;;;;17.99;71.27;98102.53;4881957;28;20527;-75
2022/10/19 08:06:05;;;;;;;35.80;9.05;;;;;;;18.03;71.20;98103.56;4888357;28;20214;-75
2022/10/19 08:08:30;;;;;;;31.77;8.52;;;;;;;18.10;71.20;98101.44;4889312;28;20602;-76
2022/10/19 08:10:56;;;;;;;20.38;8.48;;;;;;;18.07;71.12;98094.06;4887947;28;20221;-76
2022/10/19 08:13:22;;;;;;;35.30;9.82;;;;;;;17.93;71.46;98091.22;4871669;28;20308;-76
2022/10/19 08:15:47;;;;;;;22.67;9.57;;;;;;;18.07;71.43;98091.41;4872287;28;20299;-75
2022/10/19 08:18:12;;;;;;;21.40;9.13;;;;;;;17.96;71.79;98091.47;4887433;28;20656;-75
2022/10/19 08:20:42;;;;;;;19.45;7.78;;;;;;;18.17;71.12;98095.88;4886527;28;20289;-75
2022/10/19 08:23:07;;;;;;;30.92;8.45;;;;;;;18.12;71.34;98092.19;4887295;28;20202;-76
2022/10/19 08:25:32;;;;;;;23.80;9.52;;;;;;;18.17;71.30;98091.38;4871479;28;20175;-77
2022/10/19 08:27:58;;;;;;;17.58;8.15;;;;;;;18.20;71.41;98098.75;4887844;28;20218;-77
2022/10/19 08:30:23;;;;;;;21.00;9.70;;;;;;;18.17;71.08;98101.16;4886505;28;20218;-76
2022/10/19 08:32:48;;;;;;;16.13;8.32;;;;;;;18.22;71.06;98095.84;4887447;28;20631;-77
2022/10/19 08:35:14;;;;;;;21.10;9.57;;;;;;;18.04;71.99;98094.59;4887213;28;20180;-78
2022/10/19 08:37:39;;;;;;;21.23;10.93;;;;;;;18.07;71.92;98094.06;4857849;28;20168;-76
2022/10/19 08:40:05;;;;;;;18.73;9.13;;;;;;;18.00;72.29;98093.56;4871375;28;20197;-77
2022/10/19 08:42:46;;;;;;;17.30;9.43;;;;;;;18.21;71.76;98089.00;4869942;28;20312;-77
2022/10/19 08:45:37;;;;;;;20.05;8.48;;;;;;;18.56;71.49;98100.38;4849405;29;20628;-77
2022/10/19 08:48:12;;;;;;;15.65;9.23;;;;;;;18.49;71.15;98100.69;4864943;28;20645;-76
2022/10/19 08:50:41;;;;;;;15.48;9.18;;;;;;;18.59;70.81;98091.94;4886220;28;20206;-77
2022/10/19 08:53:12;;;;;;;14.00;8.23;;;;;;;18.51;71.25;98082.75;4886575;28;20262;-77
2022/10/19 08:56:15;;;;;;;14.63;9.38;;;;;;;18.68;70.87;98090.31;4871020;28;20700;-77
2022/10/19 08:59:00;;;;;;;14.85;9.40;;;;;;;18.72;70.41;98076.28;4886979;28;20353;-78
2022/10/19 09:01:40;;;;;;;14.52;8.75;;;;;;;18.83;70.50;98071.75;4875718;28;20777;-76
2022/10/19 09:04:11;;;;;;;11.98;7.43;;;;;;;18.79;70.38;98078.59;4852402;29;20211;-77
2022/10/19 09:06:48;;;;;;;12.00;7.78;;;;;;;19.00;70.10;98070.56;4869154;28;20285;-77
2022/10/19 09:09:15;;;;;;;11.75;7.65;;;;;;;18.84;70.55;98073.31;4886053;28;20605;-76
2022/10/19 09:11:46;;;;;;;11.93;7.85;;;;;;;19.00;69.85;98065.28;4902194;28;20636;-76
2022/10/19 09:14:20;;;;;;;12.68;7.60;;;;;;;18.72;70.34;98072.84;4870843;28;20194;-77
2022/10/19 09:16:46;;;;;;;11.07;8.52;;;;;;;18.80;70.00;98072.28;4886600;28;20358;-77
2022/10/19 09:19:17;;;;;;;11.45;8.10;;;;;;;18.95;70.04;98057.41;4870040;28;20179;-77
2022/10/19 09:21:47;;;;;;;10.25;7.00;;;;;;;19.00;69.92;98058.13;4870252;28;20336;-77
2022/10/19 09:24:26;;;;;;;8.70;7.20;;;;;;;19.13;69.06;98048.81;4870106;28;20289;-76
2022/10/19 09:26:54;;;;;;;11.60;6.88;;;;;;;19.31;68.93;98059.72;4870209;28;20194;-77
2022/10/19 09:29:29;;;;;;;11.57;7.18;;;;;;;19.17;68.85;98059.59;4885611;28;20210;-76
2022/10/19 09:31:56;;;;;;;7.45;6.28;;;;;;;19.18;68.62;98059.31;4876760;28;20254;-77
2022/10/19 09:34:25;;;;;;;9.05;5.60;;;;;;;19.28;68.36;98061.84;4872415;28;20950;-76
2022/10/19 09:36:56;;;;;;;7.78;5.93;;;;;;;19.52;67.81;98055.81;4891735;28;20860;-77
2022/10/19 09:39:23;;;;;;;8.88;6.47;;;;;;;19.38;68.14;98055.69;4891462;28;20102;-77
2022/10/19 09:41:56;;;;;;;6.50;5.40;;;;;;;19.49;67.42;98045.03;4891939;28;20027;-76
2022/10/19 09:44:23;;;;;;;8.60;5.35;;;;;;;19.67;67.08;98046.91;4890984;28;20204;-76
2022/10/19 09:47:01;;;;;;;6.03;4.70;;;;;;;19.62;66.33;98037.22;4886335;28;20280;-76
2022/10/19 09:49:41;;;;;;;6.40;4.80;;;;;;;19.81;66.06;98041.78;4854021;28;20218;-77
2022/10/19 09:52:22;;;;;;;5.88;4.68;;;;;;;19.85;65.55;98042.78;4887979;28;20660;-77
2022/10/19 09:54:50;;;;;;;5.55;4.65;;;;;;;19.85;65.55;98037.50;4887994;28;20284;-77
2022/10/19 09:57:20;;;;;;;5.68;4.72;;;;;;;19.91;64.94;98035.56;4870057;28;20245;-76
2022/10/19 09:59:51;;;;;;;6.82;4.88;;;;;;;19.62;65.04;98039.84;4889863;28;20226;-76
2022/10/19 10:02:20;;;;;;;7.43;5.30;;;;;;;19.57;65.57;98042.53;4891232;28;20262;-77
2022/10/19 10:04:54;;;;;;;5.70;4.75;;;;;;;19.32;65.81;98035.69;4889398;28;20190;-76
2022/10/19 10:07:19;;;;;;;10.47;5.70;;;;;;;19.64;65.97;98040.34;4873658;28;20201;-76
2022/10/19 10:09:45;;;;;;;7.63;5.30;;;;;;;19.67;65.78;98025.78;4872777;28;20860;-76
2022/10/19 10:12:13;;;;;;;7.40;5.15;;;;;;;19.95;65.52;98028.66;4890024;28;20206;-76
2022/10/19 10:14:39;;;;;;;5.75;4.97;;;;;;;19.69;64.46;98028.13;4857217;28;20250;-75
2022/10/19 10:17:20;;;;;;;5.78;4.63;;;;;;;19.99;64.61;98032.28;4889351;28;20695;-76
2022/10/19 10:19:58;;;;;;;5.45;4.18;;;;;;;20.03;64.25;98038.56;4872647;28;20293;-76
2022/10/19 10:22:26;;;;;;;7.40;5.50;;;;;;;19.87;64.95;98037.22;4888709;28;20300;-74
2022/10/19 10:24:53;;;;;;;7.40;4.63;;;;;;;20.00;64.35;98039.94;4888424;28;20350;-76
2022/10/19 10:27:34;;;;;;;6.85;5.00;;;;;;;20.37;64.33;98038.38;4888496;28;20620;-75
2022/10/19 10:30:04;;;;;;;6.72;5.05;;;;;;;20.34;63.89;98038.97;4872104;28;20210;-75
2022/10/19 10:32:30;;;;;;;5.78;4.70;;;;;;;20.27;62.98;98035.88;4872473;28;20660;-76
2022/10/19 10:34:59;;;;;;;6.40;4.82;;;;;;;19.92;63.96;98034.50;4890317;28;20145;-75
2022/10/19 10:37:39;;;;;;;8.65;5.10;;;;;;;19.87;64.51;98039.84;4872465;28;20203;-75
2022/10/19 10:40:25;;;;;;;6.50;4.63;;;;;;;20.02;64.27;98027.22;4856260;28;20288;-75
2022/10/19 10:42:53;;;;;;;6.43;5.10;;;;;;;20.38;63.82;98034.66;4853468;29;20175;-75
2022/10/19 10:45:22;;;;;;;7.25;5.00;;;;;;;20.46;62.44;98027.13;4868917;28;20580;-75
2022/10/19 10:47:48;;;;;;;7.60;5.18;;;;;;;20.13;62.88;98019.94;4888266;28;20206;-76
2022/10/19 10:50:21;;;;;;;6.05;5.20;;;;;;;20.32;63.34;98027.88;4867632;29;20130;-74
2022/10/19 10:53:09;;;;;;;9.43;6.10;;;;;;;20.39;62.51;98012.44;4888328;28;20163;-75
2022/10/19 10:55:35;;;;;;;7.85;5.43;;;;;;;19.72;63.93;98019.66;4888164;28;20376;-75
2022/10/19 10:58:24;;;;;;;9.40;5.82;;;;;;;19.93;63.84;98015.72;4888020;28;20299;-76
2022/10/19 11:00:50;;;;;;;7.75;5.45;;;;;;;19.58;65.19;98017.69;4871634;28;20168;-76
2022/10/19 11:03:22;;;;;;;9.77;6.30;;;;;;;19.99;63.72;98009.28;4868999;29;20621;-75
2022/10/19 11:05:56;;;;;;;10.30;6.00;;;;;;;20.43;63.42;98009.22;4883972;28;20378;-74
2022/10/19 11:08:37;;;;;;;9.20;6.32;;;;;;;20.56;62.46;98003.97;4887493;28;20294;-74
2022/10/19 11:11:13;;;;;;;7.88;6.53;;;;;;;20.60;61.51;98001.53;4871417;28;20167;-76
2022/10/19 11:13:58;;;;;;;10.07;6.10;;;;;;;21.09;61.41;97996.75;4871971;28;20640;-75
2022/10/19 11:16:37;;;;;;;7.83;5.93;;;;;;;21.35;60.66;97997.06;4871873;28;20675;-75
2022/10/19 11:19:15;;;;;;;6.82;4.65;;;;;;;21.77;57.84;97997.84;4887182;28;20252;-75
2022/10/19 11:21:50;;;;;;;5.13;4.13;;;;;;;22.02;54.78;97987.78;4887343;28;20215;-75
2022/10/19 11:24:34;;;;;;;6.70;5.03;;;;;;;22.23;57.18;97993.41;4889432;28;20325;-74
2022/10/19 11:27:17;;;;;;;4.65;4.10;;;;;;;22.60;54.82;97984.34;4887500;28;20293;-75